createdAt,value
2022-08-30T00:00:01.778Z,1020.99
2022-08-30T00:02:01.801Z,1020.99
2022-08-30T00:04:02.102Z,1021.07
2022-08-30T00:06:02.353Z,1021.07
2022-08-30T00:08:02.250Z,1021.05
2022-08-30T00:10:01.715Z,1021.05
2022-08-30T00:12:02.059Z,1020.92
2022-08-30T00:14:01.613Z,1020.92
2022-08-30T00:16:02.537Z,1020.93
2022-08-30T00:18:01.708Z,1020.93
2022-08-30T00:20:02.416Z,1021.02
2022-08-30T00:22:01.640Z,1021.02
2022-08-30T00:24:02.429Z,1020.77
2022-08-30T00:26:02.384Z,1020.77
2022-08-30T00:28:02.442Z,1020.82
2022-08-30T00:30:02.028Z,1020.82
2022-08-30T00:32:02.473Z,1020.75
2022-08-30T00:34:02.057Z,1020.75
2022-08-30T00:36:02.169Z,1020.92
2022-08-30T00:38:03.752Z,1020.92
2022-08-30T00:40:02.626Z,1020.81
2022-08-30T00:42:02.214Z,1020.81
2022-08-30T00:44:01.611Z,1020.9
2022-08-30T00:46:02.261Z,1020.9
2022-08-30T00:48:02.130Z,1020.82
2022-08-30T00:50:02.424Z,1020.82
2022-08-30T00:52:02.183Z,1020.87
2022-08-30T00:54:02.468Z,1020.87
2022-08-30T00:56:01.722Z,1020.9
2022-08-30T00:58:05.112Z,1020.9
2022-08-30T01:00:05.201Z,1020.9
2022-08-30T01:02:02.549Z,1020.72
2022-08-30T01:04:02.730Z,1020.72
2022-08-30T01:06:02.455Z,1020.78
2022-08-30T01:08:01.897Z,1020.78
2022-08-30T01:10:02.161Z,1020.77
2022-08-30T01:12:02.304Z,1020.77
2022-08-30T01:14:01.845Z,1020.82
2022-08-30T01:16:03.201Z,1020.82
2022-08-30T01:18:02.407Z,1020.78
2022-08-30T01:20:01.796Z,1020.78
2022-08-30T01:22:02.433Z,1020.85
2022-08-30T01:24:02.188Z,1020.85
2022-08-30T01:26:02.421Z,1020.85
2022-08-30T01:28:02.495Z,1020.85
2022-08-30T01:30:02.268Z,1020.93
2022-08-30T01:32:01.735Z,1020.93
2022-08-30T01:34:01.673Z,1020.83
2022-08-30T01:36:01.756Z,1020.83
2022-08-30T01:38:02.390Z,1020.95
2022-08-30T01:40:02.148Z,1020.95
2022-08-30T01:42:02.445Z,1020.89
2022-08-30T01:44:01.632Z,1020.89
2022-08-30T01:46:02.123Z,1020.81
2022-08-30T01:48:06.710Z,1020.81
2022-08-30T01:50:01.934Z,1020.87
2022-08-30T01:52:02.245Z,1020.87
2022-08-30T01:54:01.655Z,1020.88
2022-08-30T01:56:02.171Z,1020.88
2022-08-30T01:58:02.503Z,1020.86
2022-08-30T02:00:04.987Z,1020.86
2022-08-30T02:02:01.919Z,1020.87
2022-08-30T02:04:02.640Z,1020.87
2022-08-30T02:06:01.735Z,1020.88
2022-08-30T02:08:01.939Z,1020.88
2022-08-30T02:10:01.847Z,1020.86
2022-08-30T02:12:02.332Z,1020.86
2022-08-30T02:14:01.739Z,1020.8
2022-08-30T02:16:01.969Z,1020.8
2022-08-30T02:18:02.042Z,1020.81
2022-08-30T02:20:01.907Z,1020.81
2022-08-30T02:22:01.628Z,1020.78
2022-08-30T02:24:01.733Z,1020.78
2022-08-30T02:26:01.950Z,1020.78
2022-08-30T02:28:02.442Z,1020.78
2022-08-30T02:30:02.625Z,1020.73
2022-08-30T02:32:02.087Z,1020.73
2022-08-30T02:34:01.957Z,1020.74
2022-08-30T02:36:01.615Z,1020.74
2022-08-30T02:38:02.398Z,1020.85
2022-08-30T02:40:02.307Z,1020.85
2022-08-30T02:42:01.689Z,1020.69
2022-08-30T02:44:01.806Z,1020.69
2022-08-30T02:46:02.343Z,1020.77
2022-08-30T02:48:01.705Z,1020.77
2022-08-30T02:50:02.200Z,1020.67
2022-08-30T02:52:02.251Z,1020.67
2022-08-30T02:54:02.517Z,1020.58
2022-08-30T02:56:02.222Z,1020.58
2022-08-30T02:58:01.626Z,1020.55
2022-08-30T03:00:02.030Z,1020.55
2022-08-30T03:02:01.607Z,1020.52
2022-08-30T03:04:02.684Z,1020.52
2022-08-30T03:06:01.783Z,1020.61
2022-08-30T03:08:02.132Z,1020.61
2022-08-30T03:10:01.865Z,1020.66
2022-08-30T03:12:02.378Z,1020.66
2022-08-30T03:14:01.631Z,1020.68
2022-08-30T03:16:01.783Z,1020.68
2022-08-30T03:18:02.425Z,1020.8
2022-08-30T03:20:02.033Z,1020.8
2022-08-30T03:22:02.313Z,1020.61
2022-08-30T03:24:01.938Z,1020.61
2022-08-30T03:26:01.543Z,1020.58
2022-08-30T03:28:02.110Z,1020.58
2022-08-30T03:30:01.830Z,1020.45
2022-08-30T03:32:01.850Z,1020.45
2022-08-30T03:34:02.339Z,1020.43
2022-08-30T03:36:02.259Z,1020.43
2022-08-30T03:38:02.179Z,1020.42
2022-08-30T03:40:02.314Z,1020.42
2022-08-30T03:42:03.272Z,1020.45
2022-08-30T03:44:01.559Z,1020.45
2022-08-30T03:46:02.389Z,1020.51
2022-08-30T03:48:01.962Z,1020.51
2022-08-30T03:50:02.501Z,1020.42
2022-08-30T03:52:02.166Z,1020.42
2022-08-30T03:54:02.572Z,1020.48
2022-08-30T03:56:02.123Z,1020.48
2022-08-30T03:58:02.390Z,1020.53
2022-08-30T04:00:05.657Z,1020.53
2022-08-30T04:02:01.777Z,1020.51
2022-08-30T04:04:03.750Z,1020.51
2022-08-30T04:06:02.308Z,1020.54
2022-08-30T04:08:02.450Z,1020.54
2022-08-30T04:10:01.989Z,1020.48
2022-08-30T04:12:01.815Z,1020.48
2022-08-30T04:14:02.143Z,1020.53
2022-08-30T04:16:01.873Z,1020.53
2022-08-30T04:18:01.763Z,1020.63
2022-08-30T04:20:02.389Z,1020.63
2022-08-30T04:22:02.300Z,1020.66
2022-08-30T04:24:02.606Z,1020.66
2022-08-30T04:26:02.269Z,1020.6
2022-08-30T04:28:02.022Z,1020.6
2022-08-30T04:30:02.430Z,1020.6
2022-08-30T04:32:02.166Z,1020.56
2022-08-30T04:34:02.290Z,1020.56
2022-08-30T04:36:01.863Z,1020.47
2022-08-30T04:38:01.892Z,1020.47
2022-08-30T04:40:02.293Z,1020.6
2022-08-30T04:42:01.763Z,1020.6
2022-08-30T04:44:02.086Z,1020.6
2022-08-30T04:46:01.938Z,1020.6
2022-08-30T04:48:02.291Z,1020.57
2022-08-30T04:50:02.524Z,1020.57
2022-08-30T04:52:02.508Z,1020.66
2022-08-30T04:54:01.740Z,1020.66
2022-08-30T04:56:01.838Z,1020.66
2022-08-30T04:58:02.305Z,1020.66
2022-08-30T05:00:05.339Z,1020.69
2022-08-30T05:02:02.484Z,1020.69
2022-08-30T05:04:02.573Z,1020.76
2022-08-30T05:06:01.675Z,1020.76
2022-08-30T05:08:02.490Z,1020.73
2022-08-30T05:10:02.268Z,1020.73
2022-08-30T05:12:01.921Z,1020.66
2022-08-30T05:14:02.585Z,1020.66
2022-08-30T05:16:02.454Z,1020.73
2022-08-30T05:18:01.746Z,1020.73
2022-08-30T05:20:01.877Z,1020.84
2022-08-30T05:22:02.135Z,1020.84
2022-08-30T05:24:01.804Z,1020.88
2022-08-30T05:26:02.055Z,1020.88
2022-08-30T05:28:01.880Z,1020.85
2022-08-30T05:30:01.909Z,1020.85
2022-08-30T05:32:01.855Z,1020.99
2022-08-30T05:34:02.347Z,1020.99
2022-08-30T05:36:02.444Z,1020.9
2022-08-30T05:38:03.096Z,1020.9
2022-08-30T05:40:03.078Z,1020.9
2022-08-30T05:42:02.209Z,1020.9
2022-08-30T05:44:01.894Z,1021.07
2022-08-30T05:46:02.198Z,1021.07
2022-08-30T05:48:02.403Z,1020.96
2022-08-30T05:50:01.977Z,1020.96
2022-08-30T05:52:01.891Z,1020.98
2022-08-30T05:54:04.139Z,1020.98
2022-08-30T05:56:02.396Z,1021.05
2022-08-30T05:58:01.614Z,1021.05
2022-08-30T06:00:05.031Z,1021.1
2022-08-30T06:02:02.270Z,1021.1
2022-08-30T06:04:04.579Z,1021.1
2022-08-30T06:06:01.895Z,1021.1
2022-08-30T06:08:01.921Z,1021.18
2022-08-30T06:10:02.339Z,1021.18
2022-08-30T06:12:01.777Z,1021.14
2022-08-30T06:14:01.915Z,1021.14
2022-08-30T06:16:02.585Z,1021.06
2022-08-30T06:18:01.675Z,1021.06
2022-08-30T06:20:01.900Z,1021.21
2022-08-30T06:22:01.887Z,1021.21
2022-08-30T06:24:02.395Z,1021.25
2022-08-30T06:26:01.806Z,1021.25
2022-08-30T06:28:01.727Z,1021.15
2022-08-30T06:30:02.165Z,1021.15
2022-08-30T06:32:01.858Z,1021.19
2022-08-30T06:34:02.496Z,1021.19
2022-08-30T06:36:06.277Z,1021.21
2022-08-30T06:38:02.207Z,1021.21
2022-08-30T06:40:02.203Z,1021.21
2022-08-30T06:42:02.296Z,1021.21
2022-08-30T06:44:01.655Z,1021
2022-08-30T06:46:01.984Z,1021
2022-08-30T06:48:02.333Z,1020.96
2022-08-30T06:50:02.512Z,1020.96
2022-08-30T06:52:03.749Z,1021.09
2022-08-30T06:54:03.613Z,1021.09
2022-08-30T06:56:02.423Z,1021.05
2022-08-30T06:58:02.314Z,1021.05
2022-08-30T07:00:05.061Z,1021
2022-08-30T07:02:02.284Z,1021
2022-08-30T07:04:02.453Z,1021.17
2022-08-30T07:06:02.274Z,1021.17
2022-08-30T07:08:02.335Z,1021.11
2022-08-30T07:10:01.996Z,1021.11
2022-08-30T07:12:02.391Z,1021.14
2022-08-30T07:14:02.385Z,1021.14
2022-08-30T07:16:01.971Z,1020.98
2022-08-30T07:18:02.221Z,1020.98
2022-08-30T07:20:02.062Z,1021.03
2022-08-30T07:22:02.084Z,1021.03
2022-08-30T07:24:01.960Z,1020.95
2022-08-30T07:26:02.075Z,1020.95
2022-08-30T07:28:01.611Z,1021.13
2022-08-30T07:30:02.405Z,1021.13
2022-08-30T07:32:01.744Z,1021.08
2022-08-30T07:34:02.568Z,1021.08
2022-08-30T07:36:02.544Z,1021.05
2022-08-30T07:38:02.276Z,1021.05
2022-08-30T07:40:01.972Z,1021.02
2022-08-30T07:42:03.909Z,1021.02
2022-08-30T07:44:01.599Z,1021.09
2022-08-30T07:46:02.407Z,1021.09
2022-08-30T07:48:01.700Z,1021.2
2022-08-30T07:50:02.309Z,1021.15
2022-08-30T07:52:01.649Z,1021.15
2022-08-30T07:54:01.861Z,1021.2
2022-08-30T07:56:05.000Z,1021.2
2022-08-30T08:00:05.005Z,1021.24
2022-08-30T08:02:02.249Z,1021.35
2022-08-30T08:04:01.580Z,1021.35
2022-08-30T08:06:01.642Z,1021.33
2022-08-30T08:08:02.379Z,1021.33
2022-08-30T08:10:02.355Z,1021.32
2022-08-30T08:12:01.716Z,1021.32
2022-08-30T08:14:01.846Z,1021.34
2022-08-30T08:16:02.550Z,1021.34
2022-08-30T08:18:01.973Z,1021.34
2022-08-30T08:20:02.435Z,1021.34
2022-08-30T08:22:21.844Z,1021.37
2022-08-30T08:24:02.155Z,1021.37
2022-08-30T08:26:02.115Z,1021.37
2022-08-30T08:28:01.807Z,1021.37
2022-08-30T08:30:01.870Z,1021.36
2022-08-30T08:32:02.429Z,1021.36
2022-08-30T08:36:07.407Z,1021.31
2022-08-30T08:38:02.393Z,1021.31
2022-08-30T08:40:01.967Z,1021.31
2022-08-30T08:42:01.671Z,1021.25
2022-08-30T08:44:01.884Z,1021.25
2022-08-30T08:46:02.212Z,1021.28
2022-08-30T08:48:04.674Z,1021.28
2022-08-30T08:50:02.580Z,1021.34
2022-08-30T08:52:02.378Z,1021.34
2022-08-30T08:54:02.613Z,1021.3
2022-08-30T08:56:02.400Z,1021.3
2022-08-30T08:58:01.918Z,1021.41
2022-08-30T09:00:05.496Z,1021.41
2022-08-30T09:02:02.615Z,1021.24
2022-08-30T09:04:02.047Z,1021.24
2022-08-30T09:06:02.226Z,1021.34
2022-08-30T09:08:03.119Z,1021.34
2022-08-30T09:10:02.100Z,1021.37
2022-08-30T09:12:02.445Z,1021.37
2022-08-30T09:14:02.191Z,1021.36
2022-08-30T09:16:01.793Z,1021.36
2022-08-30T09:18:03.281Z,1021.36
2022-08-30T09:20:02.377Z,1021.36
2022-08-30T09:22:02.283Z,1021.31
2022-08-30T09:24:03.612Z,1021.31
2022-08-30T09:26:01.716Z,1021.34
2022-08-30T09:28:02.038Z,1021.34
2022-08-30T09:30:02.178Z,1021.4
2022-08-30T09:32:25.808Z,1021.4
2022-08-30T09:34:02.137Z,1021.31
2022-08-30T09:36:01.640Z,1021.31
2022-08-30T09:38:01.906Z,1021.35
2022-08-30T09:40:01.807Z,1021.35
2022-08-30T09:42:02.451Z,1021.39
2022-08-30T09:44:02.404Z,1021.39
2022-08-30T09:46:02.174Z,1021.28
2022-08-30T09:48:03.359Z,1021.28
2022-08-30T09:50:02.497Z,1021.32
2022-08-30T09:52:05.398Z,1021.32
2022-08-30T09:54:18.595Z,1021.35
2022-08-30T09:56:02.074Z,1021.35
2022-08-30T09:58:02.132Z,1021.48
2022-08-30T10:00:04.999Z,1021.48
2022-08-30T10:02:02.070Z,1021.27
2022-08-30T10:04:02.464Z,1021.27
2022-08-30T10:06:03.134Z,1021.35
2022-08-30T10:08:02.203Z,1021.35
2022-08-30T10:10:02.337Z,1021.27
2022-08-30T10:12:01.890Z,1021.27
2022-08-30T10:14:03.156Z,1021.33
2022-08-30T10:16:01.928Z,1021.33
2022-08-30T10:18:02.334Z,1021.28
2022-08-30T10:20:02.708Z,1021.28
2022-08-30T10:22:02.884Z,1021.25
2022-08-30T10:24:01.649Z,1021.25
2022-08-30T10:26:02.146Z,1021.33
2022-08-30T10:28:03.631Z,1021.33
2022-08-30T10:30:02.134Z,1021.3
2022-08-30T10:32:01.868Z,1021.3
2022-08-30T10:34:02.016Z,1021.25
2022-08-30T10:36:02.545Z,1021.25
2022-08-30T10:38:02.626Z,1021.25
2022-08-30T10:40:02.603Z,1021.25
2022-08-30T10:42:02.175Z,1021.22
2022-08-30T10:44:02.595Z,1021.22
2022-08-30T10:46:01.942Z,1021.34
2022-08-30T10:48:02.442Z,1021.34
2022-08-30T10:50:04.129Z,1021.37
2022-08-30T10:52:02.479Z,1021.37
2022-08-30T10:54:02.179Z,1021.28
2022-08-30T10:56:01.539Z,1021.28
2022-08-30T10:58:02.253Z,1021.28
2022-08-30T11:00:06.567Z,1021.28
2022-08-30T11:02:01.739Z,1021.45
2022-08-30T11:04:01.775Z,1021.45
2022-08-30T11:06:02.589Z,1021.48
2022-08-30T11:08:02.522Z,1021.48
2022-08-30T11:10:02.765Z,1021.48
2022-08-30T11:12:02.150Z,1021.48
2022-08-30T11:14:06.082Z,1021.37
2022-08-30T11:16:02.094Z,1021.44
2022-08-30T11:18:02.402Z,1021.44
2022-08-30T11:20:01.990Z,1021.42
2022-08-30T11:22:02.219Z,1021.42
2022-08-30T11:24:02.491Z,1021.54
2022-08-30T11:26:03.268Z,1021.54
2022-08-30T11:28:02.344Z,1021.37
2022-08-30T11:30:01.954Z,1021.37
2022-08-30T11:32:03.314Z,1021.33
2022-08-30T11:34:01.729Z,1021.33
2022-08-30T11:36:03.328Z,1021.3
2022-08-30T11:38:02.230Z,1021.3
2022-08-30T11:40:04.516Z,1021.32
2022-08-30T11:42:02.499Z,1021.32
2022-08-30T11:44:02.869Z,1021.26
2022-08-30T11:46:02.501Z,1021.26
2022-08-30T11:48:04.978Z,1021.29
2022-08-30T11:50:11.133Z,1021.29
2022-08-30T11:52:28.618Z,1021.28
2022-08-30T11:54:02.154Z,1021.28
2022-08-30T11:56:02.068Z,1021.22
2022-08-30T11:58:03.351Z,1021.22
2022-08-30T12:00:06.559Z,1021.29
2022-08-30T12:02:02.145Z,1021.29
2022-08-30T12:04:02.766Z,1021.15
2022-08-30T12:06:01.560Z,1021.15
2022-08-30T12:08:02.252Z,1021.15
2022-08-30T12:10:02.535Z,1021.15
2022-08-30T12:12:02.099Z,1021.23
2022-08-30T12:14:02.100Z,1021.23
2022-08-30T12:16:03.725Z,1021.09
2022-08-30T12:18:01.944Z,1021.09
2022-08-30T12:20:02.084Z,1021.15
2022-08-30T12:22:01.872Z,1021.15
2022-08-30T12:24:04.235Z,1021.23
2022-08-30T12:26:01.694Z,1021.23
2022-08-30T12:28:03.617Z,1021.15
2022-08-30T12:30:02.087Z,1021.15
2022-08-30T12:32:05.743Z,1021.22
2022-08-30T12:34:02.492Z,1021.22
2022-08-30T12:36:02.194Z,1021.2
2022-08-30T12:38:01.861Z,1021.2
2022-08-30T12:40:02.596Z,1021.25
2022-08-30T12:42:01.823Z,1021.25
2022-08-30T12:44:05.334Z,1021.24
2022-08-30T12:46:07.934Z,1021.24
2022-08-30T12:48:01.827Z,1021.3
2022-08-30T12:50:02.688Z,1021.3
2022-08-30T12:52:01.760Z,1021.22
2022-08-30T12:54:02.641Z,1021.22
2022-08-30T12:56:02.172Z,1021.09
2022-08-30T12:58:01.717Z,1021.09
2022-08-30T13:00:06.648Z,1021.23
2022-08-30T13:02:02.333Z,1021.23
2022-08-30T13:04:02.598Z,1021.09
2022-08-30T13:06:03.181Z,1021.09
2022-08-30T13:08:01.759Z,1021
2022-08-30T13:10:02.022Z,1021
2022-08-30T13:12:02.459Z,1021.05
2022-08-30T13:14:02.006Z,1021.05
2022-08-30T13:16:02.687Z,1020.98
2022-08-30T13:18:01.949Z,1020.98
2022-08-30T13:20:02.737Z,1021
2022-08-30T13:22:02.376Z,1021
2022-08-30T13:24:02.136Z,1020.93
2022-08-30T13:26:01.714Z,1020.93
2022-08-30T13:28:02.349Z,1020.94
2022-08-30T13:30:02.422Z,1020.94
2022-08-30T13:32:02.315Z,1020.75
2022-08-30T13:34:02.593Z,1020.75
2022-08-30T13:36:01.654Z,1020.93
2022-08-30T13:38:01.859Z,1020.93
2022-08-30T13:40:05.200Z,1020.96
2022-08-30T13:42:32.986Z,1020.96
2022-08-30T13:44:13.958Z,1020.93
2022-08-30T13:46:01.881Z,1020.93
2022-08-30T13:48:02.086Z,1020.79
2022-08-30T13:50:01.723Z,1020.79
2022-08-30T13:52:22.191Z,1020.76
2022-08-30T13:54:02.108Z,1020.76
2022-08-30T13:56:02.919Z,1020.8
2022-08-30T13:58:02.562Z,1020.8
2022-08-30T14:00:06.128Z,1020.78
2022-08-30T14:02:11.908Z,1020.78
2022-08-30T14:04:17.301Z,1020.79
2022-08-30T14:06:33.898Z,1020.79
2022-08-30T14:08:01.638Z,1020.69
2022-08-30T14:10:32.441Z,1020.69
2022-08-30T14:12:02.379Z,1020.82
2022-08-30T14:14:43.149Z,1020.82
2022-08-30T14:16:29.594Z,1020.77
2022-08-30T14:18:02.040Z,1020.77
2022-08-30T14:20:02.421Z,1020.68
2022-08-30T14:22:01.639Z,1020.68
2022-08-30T14:24:02.400Z,1020.9
2022-08-30T14:26:02.454Z,1020.9
2022-08-30T14:28:02.145Z,1020.63
2022-08-30T14:30:01.900Z,1020.63
2022-08-30T14:32:02.065Z,1020.79
2022-08-30T14:34:04.172Z,1020.79
2022-08-30T14:36:02.258Z,1020.73
2022-08-30T14:38:01.678Z,1020.78
2022-08-30T14:40:03.463Z,1020.78
2022-08-30T14:42:07.590Z,1020.81
2022-08-30T14:44:01.597Z,1020.81
2022-08-30T14:46:02.469Z,1020.86
2022-08-30T14:48:16.323Z,1020.86
2022-08-30T14:50:02.364Z,1020.93
2022-08-30T14:52:01.583Z,1020.93
2022-08-30T14:54:02.299Z,1020.93
2022-08-30T14:56:01.568Z,1020.93
2022-08-30T14:58:04.340Z,1020.8
2022-08-30T15:00:06.072Z,1020.8
2022-08-30T15:02:02.451Z,1020.83
2022-08-30T15:04:01.948Z,1020.83
2022-08-30T15:06:01.906Z,1020.87
2022-08-30T15:08:02.552Z,1020.87
2022-08-30T15:10:02.782Z,1020.83
2022-08-30T15:12:02.743Z,1020.83
2022-08-30T15:14:02.295Z,1020.74
2022-08-30T15:16:02.713Z,1020.74
2022-08-30T15:18:02.090Z,1020.65
2022-08-30T15:20:01.905Z,1020.65
2022-08-30T15:22:02.001Z,1020.51
2022-08-30T15:24:01.851Z,1020.51
2022-08-30T15:26:02.362Z,1020.47
2022-08-30T15:28:01.781Z,1020.47
2022-08-30T15:30:02.394Z,1020.46
2022-08-30T15:32:02.359Z,1020.46
2022-08-30T15:34:01.977Z,1020.47
2022-08-30T15:36:04.503Z,1020.47
2022-08-30T15:38:02.428Z,1020.37
2022-08-30T15:40:05.196Z,1020.37
2022-08-30T15:42:02.330Z,1020.36
2022-08-30T15:44:01.656Z,1020.36
2022-08-30T15:46:01.959Z,1020.35
2022-08-30T15:48:02.523Z,1020.35
2022-08-30T15:50:01.881Z,1020.37
2022-08-30T15:52:02.108Z,1020.37
2022-08-30T15:54:02.248Z,1020.3
2022-08-30T15:56:01.925Z,1020.3
2022-08-30T15:58:02.495Z,1020.27
2022-08-30T16:00:06.812Z,1020.27
2022-08-30T16:02:02.038Z,1020.39
2022-08-30T16:04:02.118Z,1020.39
2022-08-30T16:06:02.477Z,1020.29
2022-08-30T16:08:02.388Z,1020.29
2022-08-30T16:10:02.521Z,1020.28
2022-08-30T16:12:01.699Z,1020.28
2022-08-30T16:14:01.746Z,1020.31
2022-08-30T16:16:02.756Z,1020.31
2022-08-30T16:18:02.615Z,1020.24
2022-08-30T16:20:01.919Z,1020.24
2022-08-30T16:22:01.609Z,1020.1
2022-08-30T16:24:02.066Z,1020.1
2022-08-30T16:26:04.621Z,1020.3
2022-08-30T16:28:02.186Z,1020.3
2022-08-30T16:30:02.587Z,1020.28
2022-08-30T16:32:02.178Z,1020.28
2022-08-30T16:34:04.154Z,1020.22
2022-08-30T16:36:01.731Z,1020.22
2022-08-30T16:38:02.646Z,1020.19
2022-08-30T16:40:02.599Z,1020.19
2022-08-30T16:42:03.450Z,1020.09
2022-08-30T16:44:01.595Z,1020.09
2022-08-30T16:46:03.078Z,1020.1
2022-08-30T16:48:02.120Z,1020.1
2022-08-30T16:50:02.438Z,1020.1
2022-08-30T16:52:01.615Z,1020.1
2022-08-30T16:54:01.740Z,1020.03
2022-08-30T16:56:02.455Z,1020.03
2022-08-30T16:58:02.483Z,1020.12
2022-08-30T17:00:05.251Z,1020.12
2022-08-30T17:02:03.765Z,1020.08
2022-08-30T17:04:02.430Z,1020.08
2022-08-30T17:06:04.241Z,1020.13
2022-08-30T17:08:03.710Z,1020.13
2022-08-30T17:10:03.272Z,1020.17
2022-08-30T17:12:04.141Z,1020.17
2022-08-30T17:14:02.097Z,1020.06
2022-08-30T17:16:02.207Z,1020.06
2022-08-30T17:18:01.957Z,1020.13
2022-08-30T17:20:02.753Z,1020.13
2022-08-30T17:22:02.241Z,1020.21
2022-08-30T17:24:03.144Z,1020.21
2022-08-30T17:26:02.918Z,1020.17
2022-08-30T17:28:02.121Z,1020.17
2022-08-30T17:30:03.090Z,1020.13
2022-08-30T17:32:01.959Z,1020.13
2022-08-30T17:34:04.422Z,1020.16
2022-08-30T17:36:01.981Z,1020.16
2022-08-30T17:38:02.017Z,1020.18
2022-08-30T17:40:04.862Z,1020.18
2022-08-30T17:42:02.216Z,1020.24
2022-08-30T17:44:01.663Z,1020.24
2022-08-30T17:46:02.242Z,1020.27
2022-08-30T17:48:01.874Z,1020.27
2022-08-30T17:50:01.779Z,1020.25
2022-08-30T17:52:02.721Z,1020.25
2022-08-30T17:54:01.800Z,1020.24
2022-08-30T17:56:02.156Z,1020.24
2022-08-30T17:58:02.548Z,1020.2
2022-08-30T18:00:05.962Z,1020.35
2022-08-30T18:02:02.433Z,1020.35
2022-08-30T18:04:06.651Z,1020.52
2022-08-30T18:06:01.714Z,1020.52
2022-08-30T18:08:02.815Z,1020.54
2022-08-30T18:10:02.469Z,1020.54
2022-08-30T18:12:01.864Z,1020.53
2022-08-30T18:14:03.404Z,1020.53
2022-08-30T18:16:01.751Z,1020.65
2022-08-30T18:18:04.525Z,1020.65
2022-08-30T18:20:02.797Z,1020.6
2022-08-30T18:22:03.671Z,1020.6
2022-08-30T18:24:02.562Z,1020.61
2022-08-30T18:26:02.383Z,1020.61
2022-08-30T18:28:02.930Z,1020.76
2022-08-30T18:30:01.806Z,1020.76
2022-08-30T18:32:02.462Z,1020.84
2022-08-30T18:34:02.188Z,1020.84
2022-08-30T18:36:02.365Z,1020.93
2022-08-30T18:38:01.944Z,1020.93
2022-08-30T18:40:02.741Z,1020.95
2022-08-30T18:42:03.634Z,1020.95
2022-08-30T18:44:29.080Z,1020.9
2022-08-30T18:46:03.153Z,1020.9
2022-08-30T18:48:02.326Z,1020.95
2022-08-30T18:50:01.843Z,1020.95
2022-08-30T18:52:02.878Z,1021.01
2022-08-30T18:54:02.634Z,1021.01
2022-08-30T18:56:01.572Z,1020.96
2022-08-30T18:58:02.759Z,1020.96
2022-08-30T19:00:07.415Z,1021
2022-08-30T19:02:02.589Z,1021
2022-08-30T19:04:02.401Z,1021.02
2022-08-30T19:06:01.827Z,1021.02
2022-08-30T19:08:02.878Z,1021.05
2022-08-30T19:10:03.362Z,1021.05
2022-08-30T19:12:01.710Z,1021.1
2022-08-30T19:14:02.501Z,1021.1
2022-08-30T19:16:01.911Z,1021.16
2022-08-30T19:18:01.876Z,1021.16
2022-08-30T19:20:02.158Z,1021
2022-08-30T19:22:01.770Z,1021
2022-08-30T19:24:02.597Z,1021.22
2022-08-30T19:26:02.126Z,1021.22
2022-08-30T19:28:02.055Z,1021.11
2022-08-30T19:30:01.852Z,1021.11
2022-08-30T19:32:01.846Z,1021.29
2022-08-30T19:34:02.067Z,1021.29
2022-08-30T19:36:02.146Z,1021.1
2022-08-30T19:38:02.451Z,1021.1
2022-08-30T19:40:02.388Z,1021.19
2022-08-30T19:42:02.426Z,1021.19
2022-08-30T19:44:02.438Z,1021.15
2022-08-30T19:46:01.655Z,1021.15
2022-08-30T19:48:01.930Z,1021.32
2022-08-30T19:50:02.353Z,1021.32
2022-08-30T19:52:02.081Z,1021.19
2022-08-30T19:54:02.058Z,1021.19
2022-08-30T19:56:03.080Z,1021.28
2022-08-30T19:58:02.475Z,1021.28
2022-08-30T20:00:05.051Z,1021.31
2022-08-30T20:02:02.129Z,1021.31
2022-08-30T20:04:02.712Z,1021.21
2022-08-30T20:06:03.540Z,1021.21
2022-08-30T20:08:01.730Z,1021.25
2022-08-30T20:10:02.404Z,1021.25
2022-08-30T20:12:02.046Z,1021.29
2022-08-30T20:14:03.079Z,1021.29
2022-08-30T20:16:01.613Z,1021.23
2022-08-30T20:18:14.973Z,1021.23
2022-08-30T20:20:02.237Z,1021.3
2022-08-30T20:22:08.416Z,1021.3
2022-08-30T20:24:01.617Z,1021.23
2022-08-30T20:26:02.533Z,1021.23
2022-08-30T20:28:01.943Z,1021.25
2022-08-30T20:30:02.476Z,1021.25
2022-08-30T20:32:01.845Z,1021.23
2022-08-30T20:34:02.384Z,1021.23
2022-08-30T20:36:02.029Z,1021.3
2022-08-30T20:38:02.059Z,1021.3
2022-08-30T20:40:01.916Z,1021.3
2022-08-30T20:42:02.107Z,1021.3
2022-08-30T20:44:02.512Z,1021.35
2022-08-30T20:46:02.014Z,1021.35
2022-08-30T20:48:02.283Z,1021.33
2022-08-30T20:50:02.668Z,1021.33
2022-08-30T20:52:05.208Z,1021.33
2022-08-30T20:54:01.735Z,1021.33
2022-08-30T20:56:02.209Z,1021.33
2022-08-30T20:58:02.313Z,1021.33
2022-08-30T21:00:07.849Z,1021.33
2022-08-30T21:02:03.388Z,1021.33
2022-08-30T21:04:02.298Z,1021.37
2022-08-30T21:06:02.046Z,1021.37
2022-08-30T21:08:15.797Z,1021.32
2022-08-30T21:10:02.246Z,1021.32
2022-08-30T21:12:02.269Z,1021.4
2022-08-30T21:14:03.411Z,1021.4
2022-08-30T21:16:03.969Z,1021.45
2022-08-30T21:18:02.362Z,1021.45
2022-08-30T21:20:01.818Z,1021.37
2022-08-30T21:22:01.666Z,1021.37
2022-08-30T21:24:01.997Z,1021.45
2022-08-30T21:26:01.927Z,1021.45
2022-08-30T21:28:02.065Z,1021.41
2022-08-30T21:30:01.753Z,1021.47
2022-08-30T21:32:02.565Z,1021.47
2022-08-30T21:34:01.793Z,1021.45
2022-08-30T21:36:01.681Z,1021.45
2022-08-30T21:38:02.148Z,1021.49
2022-08-30T21:40:02.359Z,1021.49
2022-08-30T21:42:01.917Z,1021.52
2022-08-30T21:44:02.023Z,1021.52
2022-08-30T21:46:04.950Z,1021.59
2022-08-30T21:48:02.074Z,1021.59
2022-08-30T21:50:01.719Z,1021.61
2022-08-30T21:52:03.034Z,1021.61
2022-08-30T21:54:02.332Z,1021.49
2022-08-30T21:56:02.193Z,1021.49
2022-08-30T21:58:03.817Z,1021.58
2022-08-30T22:00:02.238Z,1021.58
2022-08-30T22:02:02.067Z,1021.54
2022-08-30T22:04:02.411Z,1021.54
2022-08-30T22:06:02.402Z,1021.6
2022-08-30T22:08:02.365Z,1021.6
2022-08-30T22:10:02.207Z,1021.64
2022-08-30T22:12:02.856Z,1021.64
2022-08-30T22:14:02.424Z,1021.57
2022-08-30T22:16:02.438Z,1021.57
2022-08-30T22:18:02.340Z,1021.66
2022-08-30T22:20:01.965Z,1021.66
2022-08-30T22:22:02.515Z,1021.68
2022-08-30T22:24:02.381Z,1021.68
2022-08-30T22:26:02.013Z,1021.58
2022-08-30T22:28:04.620Z,1021.58
2022-08-30T22:30:02.495Z,1021.59
2022-08-30T22:32:02.524Z,1021.59
2022-08-30T22:34:01.679Z,1021.57
2022-08-30T22:36:01.772Z,1021.57
2022-08-30T22:38:02.492Z,1021.63
2022-08-30T22:40:02.735Z,1021.63
2022-08-30T22:42:02.466Z,1021.69
2022-08-30T22:44:02.448Z,1021.69
2022-08-30T22:46:01.794Z,1021.69
2022-08-30T22:48:01.603Z,1021.69
2022-08-30T22:50:01.894Z,1021.67
2022-08-30T22:52:02.545Z,1021.67
2022-08-30T22:54:02.580Z,1021.66
2022-08-30T22:56:02.545Z,1021.66
2022-08-30T22:58:02.116Z,1021.68
2022-08-30T23:00:06.374Z,1021.68
2022-08-30T23:02:03.607Z,1021.63
2022-08-30T23:04:02.221Z,1021.63
2022-08-30T23:06:01.706Z,1021.57
2022-08-30T23:08:02.074Z,1021.57
2022-08-30T23:10:02.318Z,1021.58
2022-08-30T23:12:01.862Z,1021.58
2022-08-30T23:14:02.291Z,1021.61
2022-08-30T23:16:01.804Z,1021.61
2022-08-30T23:18:02.405Z,1021.59
2022-08-30T23:20:02.432Z,1021.59
2022-08-30T23:22:01.885Z,1021.58
2022-08-30T23:24:01.772Z,1021.58
2022-08-30T23:26:02.078Z,1021.65
2022-08-30T23:28:02.382Z,1021.65
2022-08-30T23:30:02.634Z,1021.55
2022-08-30T23:32:02.255Z,1021.55
2022-08-30T23:34:01.960Z,1021.58
2022-08-30T23:36:02.356Z,1021.58
2022-08-30T23:38:01.957Z,1021.53
2022-08-30T23:40:02.828Z,1021.53
2022-08-30T23:42:01.768Z,1021.59
2022-08-30T23:44:01.702Z,1021.59
2022-08-30T23:46:01.853Z,1021.62
2022-08-30T23:48:02.169Z,1021.62
2022-08-30T23:50:01.911Z,1021.58
2022-08-30T23:52:01.626Z,1021.58
2022-08-30T23:54:02.206Z,1021.68
2022-08-30T23:56:01.788Z,1021.68
2022-08-30T23:58:02.036Z,1021.7
